createdAt,value
2018-11-22T00:16:02.000Z,1012.95
2018-11-22T00:26:02.000Z,1012.955
2018-11-22T00:36:02.000Z,1012.954
2018-11-22T00:56:02.000Z,1013.04
2018-11-22T01:06:02.000Z,1013.011
2018-11-22T01:16:02.000Z,1013.023
2018-11-22T01:26:04.000Z,1013.019
2018-11-22T01:36:02.000Z,1012.961
2018-11-22T01:46:02.000Z,1012.986
2018-11-22T01:56:02.000Z,1012.952
2018-11-22T02:06:02.000Z,1012.937
2018-11-22T02:16:02.000Z,1012.994
2018-11-22T02:26:03.000Z,1013.015
2018-11-22T02:36:02.000Z,1012.981
2018-11-22T02:46:02.000Z,1012.938
2018-11-22T02:56:02.000Z,1012.882
2018-11-22T03:06:02.000Z,1012.882
2018-11-22T03:16:02.000Z,1012.894
2018-11-22T03:26:02.000Z,1012.844
2018-11-22T03:36:02.000Z,1012.903
2018-11-22T03:46:02.000Z,1012.911
2018-11-22T03:56:02.000Z,1012.842
2018-11-22T04:06:02.000Z,1012.87
2018-11-22T04:16:03.000Z,1012.817
2018-11-22T04:26:02.000Z,1012.796
2018-11-22T04:36:02.000Z,1012.853
2018-11-22T04:46:02.000Z,1012.794
2018-11-22T04:56:02.000Z,1012.793
2018-11-22T05:06:02.000Z,1012.772
2018-11-22T05:16:02.000Z,1012.783
2018-11-22T05:26:02.000Z,1012.732
2018-11-22T05:36:02.000Z,1012.723
2018-11-22T05:46:02.000Z,1012.721
2018-11-22T05:56:02.000Z,1012.679
2018-11-22T06:06:02.000Z,1012.623
2018-11-22T06:16:03.000Z,1012.581
2018-11-22T06:26:02.000Z,1012.661
2018-11-22T06:36:03.000Z,1012.752
2018-11-22T06:46:03.000Z,1012.707
2018-11-22T06:56:03.000Z,1012.684
2018-11-22T07:06:03.000Z,1012.725
2018-11-22T07:16:03.000Z,1012.768
2018-11-22T07:26:03.000Z,1012.782
2018-11-22T07:36:03.000Z,1012.829
2018-11-22T07:46:03.000Z,1012.835
2018-11-22T07:56:03.000Z,1012.806
2018-11-22T08:06:03.000Z,1012.735
2018-11-22T08:16:03.000Z,1012.823
2018-11-22T08:26:03.000Z,1012.955
2018-11-22T08:36:03.000Z,1012.896
2018-11-22T08:46:03.000Z,1013.017
2018-11-22T08:56:03.000Z,1013.036
2018-11-22T09:06:03.000Z,1013
2018-11-22T18:26:04.000Z,1012.441
2018-11-22T18:36:04.000Z,1012.474
2018-11-22T18:46:06.000Z,1012.446
2018-11-22T18:56:05.000Z,1012.463
2018-11-22T19:06:04.000Z,1012.542
2018-11-22T19:16:05.000Z,1012.508
2018-11-22T19:26:04.000Z,1012.516
2018-11-22T19:36:05.000Z,1012.532
2018-11-22T19:46:04.000Z,1012.588
2018-11-22T19:56:04.000Z,1012.577
2018-11-22T20:06:04.000Z,1012.622
2018-11-22T20:16:06.000Z,1012.604
2018-11-22T20:26:04.000Z,1012.678
2018-11-22T20:36:04.000Z,1012.738
2018-11-22T20:46:04.000Z,1012.774
2018-11-22T20:56:04.000Z,1012.751
2018-11-22T21:06:04.000Z,1012.786
2018-11-22T21:16:04.000Z,1012.789
2018-11-22T21:26:04.000Z,1012.779
2018-11-22T21:36:04.000Z,1012.743
2018-11-22T21:46:04.000Z,1012.707
2018-11-22T21:56:04.000Z,1012.698
2018-11-22T22:06:04.000Z,1012.653
2018-11-22T22:16:04.000Z,1012.553
2018-11-22T22:26:04.000Z,1012.483
2018-11-22T22:36:04.000Z,1012.481
2018-11-22T22:46:04.000Z,1012.457
2018-11-22T22:56:04.000Z,1012.445
2018-11-22T23:06:04.000Z,1012.445
2018-11-22T23:16:07.000Z,1012.381
2018-11-22T23:26:05.000Z,1012.339
2018-11-22T23:36:05.000Z,1012.3
2018-11-22T23:46:05.000Z,1012.369
2018-11-22T23:56:08.000Z,1012.417
